STW123 LTFM-UUBW
Flight info
| Callsign | STW123 |
|---|---|
| Flight time | N/A |
| Altitude | 34000 |
| Route | IBLAX P727 BGS L622 KOMAN DCT KARIL DCT KENIN DCT KEFIR DCT DOGIG L999 BIGLU/K0850F340 T406 RAVOK T52 BILRU BILRU2W |
| Aircraft | B38M/M-SDE1FGHILORVWXY/HB1 |
Departure
| Time | 2026-05-04 07:19 |
|---|---|
| Airport | İstanbul Airport (LTFM) |
Arrival
| Time | N/A |
|---|---|
| Airport | Zhukovsky International Airport (UUBW) |
| Time | Latitude | Longitude | Altitude | Speed | Heading |
|---|---|---|---|---|---|
| 2026-05-04 06:52 | 41.26405 | 28.73571 | 336 ft | 0 kts | 74° |
| 2026-05-04 07:09 | 41.26399 | 28.73546 | 332 ft | 4 kts | 71° |
| 2026-05-04 07:09 | 41.26390 | 28.73512 | 333 ft | 4 kts | 70° |
| 2026-05-04 07:09 | 41.26384 | 28.73486 | 334 ft | 3 kts | 71° |
| 2026-05-04 07:10 | 41.26381 | 28.73459 | 331 ft | 4 kts | 124° |
| 2026-05-04 07:10 | 41.26400 | 28.73444 | 331 ft | 3 kts | 161° |
| 2026-05-04 07:12 | 41.26395 | 28.73446 | 334 ft | 0 kts | 162° |
| 2026-05-04 07:12 | 41.26390 | 28.73449 | 333 ft | 3 kts | 161° |
| 2026-05-04 07:13 | 41.26347 | 28.73468 | 333 ft | 11 kts | 161° |
| 2026-05-04 07:13 | 41.26250 | 28.73488 | 333 ft | 16 kts | 199° |
| 2026-05-04 07:13 | 41.26219 | 28.73381 | 335 ft | 13 kts | 270° |
| 2026-05-04 07:14 | 41.26210 | 28.72795 | 336 ft | 19 kts | 270° |
| 2026-05-04 07:14 | 41.26211 | 28.72659 | 336 ft | 0 kts | 271° |
| 2026-05-04 07:16 | 41.26211 | 28.72656 | 336 ft | 1 kts | 271° |
| 2026-05-04 07:16 | 41.26211 | 28.72632 | 336 ft | 5 kts | 271° |
| 2026-05-04 07:16 | 41.26215 | 28.72557 | 336 ft | 11 kts | 289° |
| 2026-05-04 07:17 | 41.26260 | 28.72521 | 336 ft | 0 kts | 0° |
| 2026-05-04 07:18 | 41.26376 | 28.72521 | 334 ft | 48 kts | 359° |
| 2026-05-04 07:19 | 41.26947 | 28.72512 | 333 ft | 112 kts | 359° |
| 2026-05-04 07:19 | 41.27877 | 28.72467 | 404 ft | 154 kts | 355° |
| 2026-05-04 07:19 | 41.29014 | 28.72492 | 947 ft | 166 kts | 355° |
| 2026-05-04 07:19 | 41.30166 | 28.72488 | 1855 ft | 161 kts | 357° |
| 2026-05-04 07:20 | 41.31319 | 28.72464 | 2505 ft | 175 kts | 0° |
| 2026-05-04 07:20 | 41.32627 | 28.72473 | 2966 ft | 202 kts | 0° |
| 2026-05-04 07:20 | 41.34118 | 28.72489 | 3545 ft | 221 kts | 1° |
| 2026-05-04 07:20 | 41.35720 | 28.72507 | 4231 ft | 237 kts | 1° |
| 2026-05-04 07:22 | 41.46798 | 28.65727 | 10347 ft | 272 kts | 336° |
| 2026-05-04 07:22 | 41.48526 | 28.64491 | 10742 ft | 291 kts | 336° |
| 2026-05-04 07:23 | 41.50375 | 28.63172 | 11048 ft | 311 kts | 336° |
| 2026-05-04 07:23 | 41.52322 | 28.61783 | 11357 ft | 329 kts | 335° |
| 2026-05-04 07:23 | 41.54391 | 28.60306 | 11805 ft | 341 kts | 335° |
| 2026-05-04 07:23 | 41.56483 | 28.58808 | 12596 ft | 342 kts | 335° |
| 2026-05-04 07:24 | 41.58598 | 28.57292 | 13344 ft | 345 kts | 335° |
| 2026-05-04 07:24 | 41.60718 | 28.55770 | 14062 ft | 348 kts | 335° |
| 2026-05-04 07:24 | 41.62868 | 28.54225 | 14653 ft | 353 kts | 335° |
| 2026-05-04 07:24 | 41.65027 | 28.52672 | 15212 ft | 358 kts | 335° |
| 2026-05-04 07:25 | 41.67239 | 28.51079 | 15832 ft | 363 kts | 335° |
| 2026-05-04 07:26 | 41.82747 | 28.39882 | 19524 ft | 394 kts | 335° |
| 2026-05-04 07:27 | 41.85167 | 28.38128 | 20028 ft | 397 kts | 335° |
| 2026-05-04 07:27 | 41.87614 | 28.36354 | 20528 ft | 401 kts | 335° |
| 2026-05-04 07:27 | 41.90082 | 28.34563 | 21018 ft | 404 kts | 335° |
| 2026-05-04 07:27 | 41.92540 | 28.32778 | 21505 ft | 408 kts | 335° |
| 2026-05-04 07:28 | 41.95043 | 28.30958 | 21980 ft | 411 kts | 335° |
| 2026-05-04 07:28 | 41.97497 | 28.28910 | 22434 ft | 420 kts | 324° |
| 2026-05-04 07:28 | 41.99490 | 28.25994 | 22947 ft | 429 kts | 309° |
| 2026-05-04 07:28 | 42.01221 | 28.22689 | 23369 ft | 434 kts | 309° |
| 2026-05-04 07:29 | 42.02949 | 28.19346 | 23770 ft | 438 kts | 308° |
| 2026-05-04 07:29 | 42.04689 | 28.15936 | 24158 ft | 442 kts | 308° |
| 2026-05-04 07:29 | 42.06424 | 28.12503 | 24527 ft | 445 kts | 308° |
| 2026-05-04 07:29 | 42.08142 | 28.09092 | 24895 ft | 448 kts | 308° |
| 2026-05-04 07:30 | 42.09899 | 28.05600 | 25259 ft | 451 kts | 308° |
| 2026-05-04 07:30 | 42.11672 | 28.02069 | 25619 ft | 455 kts | 308° |
| 2026-05-04 07:30 | 42.13456 | 27.98512 | 25981 ft | 458 kts | 307° |
| 2026-05-04 07:30 | 42.15240 | 27.94951 | 26340 ft | 460 kts | 307° |
| 2026-05-04 07:31 | 42.17038 | 27.91358 | 26675 ft | 464 kts | 307° |
| 2026-05-04 07:31 | 42.19189 | 27.87054 | 27084 ft | 467 kts | 307° |
| 2026-05-04 07:33 | 42.37449 | 27.69454 | 29240 ft | 474 kts | 335° |
| 2026-05-04 07:33 | 42.40308 | 27.67354 | 29552 ft | 476 kts | 335° |
| 2026-05-04 07:33 | 42.43229 | 27.65209 | 29968 ft | 476 kts | 335° |
| 2026-05-04 07:33 | 42.46136 | 27.63072 | 30363 ft | 476 kts | 335° |
| 2026-05-04 07:34 | 42.49053 | 27.60925 | 30686 ft | 476 kts | 335° |
| 2026-05-04 07:34 | 42.51979 | 27.58770 | 30998 ft | 477 kts | 335° |
| 2026-05-04 07:34 | 42.54900 | 27.56615 | 31308 ft | 478 kts | 335° |
| 2026-05-04 07:34 | 42.57823 | 27.54453 | 31644 ft | 479 kts | 334° |
| 2026-05-04 07:35 | 42.60611 | 27.51918 | 31963 ft | 482 kts | 327° |
| 2026-05-04 07:35 | 42.63337 | 27.49259 | 32275 ft | 483 kts | 327° |
| 2026-05-04 07:35 | 42.66068 | 27.46587 | 32563 ft | 484 kts | 327° |
| 2026-05-04 07:35 | 42.68767 | 27.43936 | 32872 ft | 484 kts | 327° |
| 2026-05-04 07:36 | 42.71511 | 27.41236 | 33199 ft | 485 kts | 327° |
| 2026-05-04 07:36 | 42.74240 | 27.38549 | 33523 ft | 485 kts | 327° |
| 2026-05-04 07:38 | 42.93268 | 27.19728 | 35827 ft | 476 kts | 326° |
| 2026-05-04 07:38 | 42.95955 | 27.17058 | 36065 ft | 476 kts | 326° |
| 2026-05-04 07:38 | 43.01286 | 27.11753 | 36060 ft | 472 kts | 326° |
| 2026-05-04 07:39 | 43.06595 | 27.06458 | 36062 ft | 472 kts | 326° |
| 2026-05-04 07:39 | 43.11958 | 27.01342 | 36057 ft | 471 kts | 328° |
| 2026-05-04 07:40 | 43.17410 | 26.96310 | 36062 ft | 472 kts | 328° |
| 2026-05-04 07:40 | 43.22847 | 26.91349 | 36067 ft | 472 kts | 328° |
| 2026-05-04 07:41 | 43.28328 | 26.86364 | 36064 ft | 471 kts | 328° |
| 2026-05-04 07:41 | 43.33769 | 26.81401 | 36065 ft | 471 kts | 328° |
| 2026-05-04 07:42 | 43.39229 | 26.76410 | 36068 ft | 470 kts | 328° |
| 2026-05-04 07:42 | 43.44686 | 26.71410 | 36076 ft | 470 kts | 328° |
| 2026-05-04 07:43 | 43.50107 | 26.66433 | 36074 ft | 469 kts | 328° |
| 2026-05-04 07:43 | 43.55539 | 26.61435 | 36075 ft | 469 kts | 328° |
| 2026-05-04 07:44 | 43.60047 | 26.57278 | 36078 ft | 468 kts | 328° |
| 2026-05-04 07:44 | 43.65462 | 26.52275 | 36079 ft | 467 kts | 328° |
| 2026-05-04 07:45 | 43.70866 | 26.47272 | 36084 ft | 467 kts | 328° |
| 2026-05-04 07:45 | 43.76238 | 26.42287 | 36083 ft | 466 kts | 328° |
| 2026-05-04 07:46 | 43.81634 | 26.37268 | 36077 ft | 466 kts | 328° |
| 2026-05-04 07:46 | 43.86989 | 26.32277 | 36081 ft | 466 kts | 328° |
| 2026-05-04 07:47 | 43.92362 | 26.27259 | 36079 ft | 465 kts | 328° |
| 2026-05-04 07:49 | 44.13954 | 26.07428 | 36078 ft | 465 kts | 328° |
| 2026-05-04 07:49 | 44.19337 | 26.02487 | 36079 ft | 465 kts | 328° |
| 2026-05-04 07:50 | 44.24747 | 25.97510 | 36073 ft | 465 kts | 328° |
| 2026-05-04 07:50 | 44.30130 | 25.92547 | 36073 ft | 465 kts | 329° |
| 2026-05-04 07:51 | 44.35520 | 25.87566 | 36075 ft | 465 kts | 329° |
| 2026-05-04 07:51 | 44.40923 | 25.82562 | 36076 ft | 465 kts | 329° |
| 2026-05-04 07:52 | 44.46333 | 25.77540 | 36070 ft | 465 kts | 329° |
| 2026-05-04 07:52 | 44.51728 | 25.72521 | 36080 ft | 471 kts | 328° |
| 2026-05-04 07:54 | 44.73512 | 25.52141 | 36065 ft | 470 kts | 329° |
| 2026-05-04 07:55 | 44.78943 | 25.47031 | 36060 ft | 469 kts | 329° |
| 2026-05-04 07:55 | 44.84362 | 25.41920 | 36061 ft | 468 kts | 329° |
| 2026-05-04 07:56 | 44.89726 | 25.36848 | 36059 ft | 466 kts | 329° |
| 2026-05-04 07:56 | 44.95096 | 25.31760 | 36057 ft | 465 kts | 329° |
| 2026-05-04 07:57 | 45.00479 | 25.26647 | 36057 ft | 464 kts | 329° |
| 2026-05-04 07:57 | 45.05835 | 25.21549 | 36058 ft | 463 kts | 329° |
| 2026-05-04 07:58 | 45.11188 | 25.16442 | 36055 ft | 462 kts | 329° |
| 2026-05-04 07:58 | 45.16522 | 25.11341 | 36060 ft | 461 kts | 329° |
| 2026-05-04 07:59 | 45.21814 | 25.06268 | 36059 ft | 461 kts | 329° |
| 2026-05-04 07:59 | 45.27105 | 25.01186 | 36065 ft | 460 kts | 329° |
| 2026-05-04 08:00 | 45.32406 | 24.96082 | 36075 ft | 459 kts | 329° |
| 2026-05-04 08:02 | 45.53502 | 24.75651 | 36100 ft | 458 kts | 329° |
| 2026-05-04 08:02 | 45.58768 | 24.70522 | 36103 ft | 457 kts | 329° |
| 2026-05-04 08:03 | 45.64020 | 24.65394 | 36109 ft | 457 kts | 329° |
| 2026-05-04 08:03 | 45.69269 | 24.60258 | 36114 ft | 456 kts | 329° |
| 2026-05-04 08:04 | 45.74486 | 24.55141 | 36128 ft | 456 kts | 329° |
| 2026-05-04 08:04 | 45.79710 | 24.50005 | 36136 ft | 455 kts | 329° |
| 2026-05-04 08:05 | 45.84936 | 24.44855 | 36137 ft | 454 kts | 329° |
| 2026-05-04 08:05 | 45.90116 | 24.39740 | 36138 ft | 454 kts | 329° |
| 2026-05-04 08:06 | 45.95316 | 24.34592 | 36138 ft | 453 kts | 329° |
| 2026-05-04 08:06 | 46.00507 | 24.29441 | 36134 ft | 453 kts | 329° |
| 2026-05-04 08:08 | 46.21260 | 24.08730 | 36133 ft | 453 kts | 329° |
| 2026-05-04 08:11 | 46.44480 | 23.85324 | 36125 ft | 452 kts | 328° |
| 2026-05-04 08:11 | 46.52200 | 23.77487 | 36143 ft | 452 kts | 328° |
| 2026-05-04 08:12 | 46.57362 | 23.72232 | 36141 ft | 452 kts | 328° |
| 2026-05-04 08:12 | 46.62506 | 23.66982 | 36145 ft | 452 kts | 328° |
| 2026-05-04 08:13 | 46.67640 | 23.61730 | 36151 ft | 452 kts | 328° |
| 2026-05-04 08:13 | 46.72763 | 23.56477 | 36151 ft | 451 kts | 328° |
| 2026-05-04 08:14 | 46.77903 | 23.51194 | 36153 ft | 451 kts | 328° |
| 2026-05-04 08:16 | 46.97967 | 23.30451 | 36144 ft | 450 kts | 327° |
| 2026-05-04 08:16 | 47.03078 | 23.25136 | 36142 ft | 450 kts | 327° |
| 2026-05-04 08:17 | 47.08190 | 23.19808 | 36146 ft | 450 kts | 327° |
| 2026-05-04 08:17 | 47.13258 | 23.14512 | 36149 ft | 450 kts | 327° |
| 2026-05-04 08:19 | 47.33018 | 22.93743 | 36159 ft | 449 kts | 327° |
| 2026-05-04 08:20 | 47.37252 | 22.89267 | 36157 ft | 449 kts | 327° |
| 2026-05-04 08:20 | 47.42254 | 22.83967 | 36163 ft | 449 kts | 327° |
| 2026-05-04 08:21 | 47.47335 | 22.78574 | 36166 ft | 449 kts | 327° |
| 2026-05-04 08:21 | 47.49867 | 22.75881 | 36170 ft | 449 kts | 327° |
| 2026-05-04 08:24 | 47.70341 | 22.53995 | 36170 ft | 449 kts | 326° |
| 2026-05-04 08:24 | 47.75365 | 22.48591 | 36165 ft | 449 kts | 326° |
| 2026-05-04 08:25 | 47.80509 | 22.43360 | 36164 ft | 446 kts | 333° |
| 2026-05-04 08:25 | 47.85860 | 22.38634 | 36161 ft | 448 kts | 331° |
| 2026-05-04 08:27 | 48.06283 | 22.20119 | 36151 ft | 448 kts | 330° |
| 2026-05-04 08:28 | 48.11611 | 22.15261 | 36150 ft | 448 kts | 330° |
| 2026-05-04 08:28 | 48.16764 | 22.10549 | 36154 ft | 448 kts | 330° |
| 2026-05-04 08:31 | 48.34737 | 21.94286 | 37015 ft | 446 kts | 340° |
| 2026-05-04 08:33 | 48.56249 | 21.92655 | 37150 ft | 445 kts | 0° |
| 2026-05-04 08:33 | 48.59344 | 21.92642 | 37150 ft | 445 kts | 0° |
| 2026-05-04 08:35 | 48.84133 | 21.92552 | 37143 ft | 445 kts | 0° |
| 2026-05-04 08:35 | 48.90313 | 21.92530 | 37151 ft | 445 kts | 0° |
| 2026-05-04 08:37 | 49.11900 | 21.92450 | 37133 ft | 443 kts | 0° |
| 2026-05-04 08:38 | 49.18016 | 21.92428 | 37132 ft | 438 kts | 0° |
| 2026-05-04 08:38 | 49.24127 | 21.92405 | 37130 ft | 440 kts | 0° |
| 2026-05-04 08:40 | 49.48567 | 21.93959 | 37112 ft | 439 kts | 4° |
| 2026-05-04 08:41 | 49.54672 | 21.94611 | 37111 ft | 439 kts | 4° |
| 2026-05-04 08:41 | 49.60747 | 21.95260 | 37105 ft | 439 kts | 4° |
| 2026-05-04 08:42 | 49.66875 | 21.95916 | 37101 ft | 440 kts | 4° |
| 2026-05-04 08:42 | 49.72970 | 21.96571 | 37101 ft | 441 kts | 4° |
| 2026-05-04 08:43 | 49.79099 | 21.97231 | 37094 ft | 441 kts | 4° |
| 2026-05-04 08:43 | 49.85197 | 21.97888 | 37097 ft | 441 kts | 4° |
| 2026-05-04 08:44 | 49.91337 | 21.98553 | 37096 ft | 442 kts | 4° |
| 2026-05-04 08:46 | 50.15874 | 22.01225 | 37098 ft | 443 kts | 4° |
| 2026-05-04 08:46 | 50.22045 | 22.01901 | 37100 ft | 443 kts | 4° |
| 2026-05-04 08:47 | 50.28209 | 22.02578 | 37094 ft | 443 kts | 4° |
| 2026-05-04 08:47 | 50.34336 | 22.03253 | 37087 ft | 444 kts | 4° |
| 2026-05-04 08:48 | 50.40512 | 22.03935 | 37081 ft | 444 kts | 4° |
| 2026-05-04 08:48 | 50.46686 | 22.04619 | 37068 ft | 445 kts | 4° |
| 2026-05-04 08:49 | 50.52827 | 22.05301 | 37063 ft | 445 kts | 4° |
| 2026-05-04 08:50 | 50.74470 | 22.07717 | 37054 ft | 446 kts | 4° |
| 2026-05-04 08:51 | 50.80596 | 22.08954 | 37043 ft | 445 kts | 19° |
| 2026-05-04 08:51 | 50.83359 | 22.11124 | 37062 ft | 446 kts | 34° |
| 2026-05-04 08:51 | 50.85244 | 22.13576 | 37065 ft | 448 kts | 42° |
| 2026-05-04 08:52 | 50.88525 | 22.18483 | 37058 ft | 451 kts | 43° |
| 2026-05-04 08:54 | 51.05202 | 22.44799 | 37048 ft | 451 kts | 44° |
| 2026-05-04 08:55 | 51.09642 | 22.51895 | 37046 ft | 451 kts | 44° |
| 2026-05-04 08:55 | 51.12352 | 22.56239 | 37047 ft | 452 kts | 44° |
| 2026-05-04 09:01 | 51.55394 | 23.26243 | 37032 ft | 454 kts | 45° |
| 2026-05-04 09:01 | 51.59812 | 23.33544 | 37035 ft | 454 kts | 45° |
| 2026-05-04 09:02 | 51.64223 | 23.40854 | 37029 ft | 454 kts | 45° |
| 2026-05-04 09:02 | 51.68587 | 23.48104 | 37032 ft | 454 kts | 45° |
| 2026-05-04 09:03 | 51.73107 | 23.55210 | 37008 ft | 453 kts | 34° |
| 2026-05-04 09:03 | 51.76084 | 23.58285 | 37008 ft | 453 kts | 30° |
| 2026-05-04 09:03 | 51.78398 | 23.60374 | 36850 ft | 454 kts | 27° |
| 2026-05-04 09:04 | 51.81204 | 23.62673 | 36400 ft | 450 kts | 25° |
| 2026-05-04 09:04 | 51.84043 | 23.64812 | 35583 ft | 451 kts | 24° |
| 2026-05-04 09:04 | 51.86936 | 23.66847 | 34699 ft | 456 kts | 22° |
| 2026-05-04 09:04 | 51.89849 | 23.68781 | 34078 ft | 454 kts | 21° |
| 2026-05-04 09:05 | 51.92770 | 23.70641 | 33760 ft | 444 kts | 21° |
| 2026-05-04 09:05 | 51.95618 | 23.72408 | 33594 ft | 432 kts | 20° |
| 2026-05-04 09:05 | 51.98417 | 23.74120 | 33343 ft | 428 kts | 20° |
| 2026-05-04 09:05 | 52.01204 | 23.75816 | 32934 ft | 425 kts | 20° |
| 2026-05-04 09:06 | 52.03965 | 23.77503 | 32313 ft | 423 kts | 20° |
| 2026-05-04 09:07 | 52.18085 | 23.97800 | 32392 ft | 423 kts | 54° |
| 2026-05-04 09:08 | 52.19792 | 24.01717 | 32681 ft | 424 kts | 54° |
| 2026-05-04 09:08 | 52.21507 | 24.05658 | 32964 ft | 426 kts | 54° |
| 2026-05-04 09:08 | 52.23229 | 24.09616 | 33223 ft | 429 kts | 54° |
| 2026-05-04 09:08 | 52.24955 | 24.13593 | 33491 ft | 431 kts | 54° |
| 2026-05-04 09:09 | 52.26696 | 24.17609 | 33753 ft | 433 kts | 55° |
| 2026-05-04 09:09 | 52.28437 | 24.21633 | 33996 ft | 436 kts | 55° |
| 2026-05-04 09:09 | 52.30193 | 24.25696 | 34233 ft | 437 kts | 55° |
| 2026-05-04 09:09 | 52.31954 | 24.29778 | 34451 ft | 439 kts | 55° |
| 2026-05-04 09:10 | 52.33697 | 24.33825 | 34659 ft | 442 kts | 55° |
| 2026-05-04 09:10 | 52.35467 | 24.37942 | 34891 ft | 443 kts | 55° |
| 2026-05-04 09:10 | 52.37244 | 24.42081 | 35023 ft | 445 kts | 55° |
| 2026-05-04 09:11 | 52.40819 | 24.50427 | 35010 ft | 445 kts | 55° |
| 2026-05-04 09:11 | 52.44341 | 24.58678 | 35009 ft | 444 kts | 55° |
| 2026-05-04 09:12 | 52.47885 | 24.67005 | 35010 ft | 444 kts | 55° |
| 2026-05-04 09:14 | 52.62245 | 25.00003 | 35012 ft | 444 kts | 54° |
| 2026-05-04 09:14 | 52.65902 | 25.08267 | 35006 ft | 444 kts | 54° |
| 2026-05-04 09:15 | 52.69509 | 25.16446 | 35008 ft | 444 kts | 54° |
| 2026-05-04 09:15 | 52.73139 | 25.24702 | 35007 ft | 445 kts | 54° |
| 2026-05-04 09:17 | 52.89442 | 25.62119 | 35002 ft | 445 kts | 54° |
| 2026-05-04 09:18 | 52.93037 | 25.70441 | 35186 ft | 448 kts | 54° |
| 2026-05-04 09:18 | 52.94860 | 25.74665 | 35353 ft | 451 kts | 54° |
| 2026-05-04 09:18 | 52.96674 | 25.78878 | 35712 ft | 449 kts | 54° |
| 2026-05-04 09:19 | 52.98494 | 25.83110 | 35875 ft | 452 kts | 54° |
| 2026-05-04 09:19 | 53.00323 | 25.87372 | 36101 ft | 453 kts | 54° |
| 2026-05-04 09:19 | 53.02158 | 25.91654 | 36311 ft | 455 kts | 54° |
| 2026-05-04 09:19 | 53.03998 | 25.95954 | 36503 ft | 457 kts | 54° |
| 2026-05-04 09:20 | 53.05846 | 26.00280 | 36706 ft | 458 kts | 54° |
| 2026-05-04 09:20 | 53.07691 | 26.04608 | 36909 ft | 459 kts | 54° |
| 2026-05-04 09:20 | 53.11372 | 26.13262 | 37006 ft | 462 kts | 54° |
| 2026-05-04 09:21 | 53.15080 | 26.22011 | 36993 ft | 461 kts | 54° |
| 2026-05-04 09:21 | 53.18785 | 26.30782 | 37005 ft | 461 kts | 54° |
| 2026-05-04 09:22 | 53.22452 | 26.39497 | 36993 ft | 462 kts | 54° |
| 2026-05-04 09:22 | 53.26146 | 26.48297 | 36996 ft | 462 kts | 54° |
| 2026-05-04 09:23 | 53.29784 | 26.57064 | 36991 ft | 463 kts | 55° |
| 2026-05-04 09:23 | 53.33484 | 26.66014 | 36995 ft | 463 kts | 55° |
| 2026-05-04 09:25 | 53.48100 | 27.01621 | 36990 ft | 464 kts | 55° |
| 2026-05-04 09:26 | 53.51732 | 27.10498 | 36995 ft | 464 kts | 55° |
| 2026-05-04 09:26 | 53.52109 | 27.11423 | 36994 ft | 464 kts | 55° |
| 2026-05-04 09:27 | 53.54342 | 27.16898 | 36979 ft | 464 kts | 55° |
| 2026-05-04 09:27 | 53.57990 | 27.25875 | 36986 ft | 464 kts | 55° |
| 2026-05-04 09:28 | 53.60407 | 27.31835 | 36991 ft | 464 kts | 55° |
| 2026-05-04 09:29 | 53.63521 | 27.39541 | 36987 ft | 464 kts | 55° |
| 2026-05-04 09:29 | 53.67166 | 27.48587 | 36987 ft | 464 kts | 55° |
| 2026-05-04 09:30 | 53.70779 | 27.57588 | 36986 ft | 464 kts | 55° |
| 2026-05-04 09:30 | 53.74404 | 27.66651 | 36976 ft | 464 kts | 55° |
| 2026-05-04 09:31 | 53.78003 | 27.75681 | 36974 ft | 465 kts | 55° |
| 2026-05-04 09:31 | 53.81621 | 27.84791 | 36972 ft | 465 kts | 55° |
| 2026-05-04 09:32 | 53.85220 | 27.93884 | 36968 ft | 465 kts | 55° |
| 2026-05-04 09:34 | 53.93904 | 28.21817 | 36964 ft | 466 kts | 64° |
| 2026-05-04 09:35 | 53.96327 | 28.30634 | 36974 ft | 466 kts | 64° |
| 2026-05-04 09:37 | 54.07213 | 28.70684 | 36966 ft | 467 kts | 64° |
| 2026-05-04 09:38 | 54.09918 | 28.80744 | 36971 ft | 467 kts | 64° |
| 2026-05-04 09:38 | 54.11987 | 28.88469 | 36959 ft | 464 kts | 64° |
| 2026-05-04 09:39 | 54.14676 | 28.98550 | 36960 ft | 467 kts | 65° |
| 2026-05-04 09:39 | 54.17360 | 29.08654 | 36968 ft | 467 kts | 65° |
| 2026-05-04 09:40 | 54.20033 | 29.18763 | 36962 ft | 467 kts | 65° |
| 2026-05-04 09:40 | 54.22684 | 29.28837 | 36963 ft | 467 kts | 65° |
| 2026-05-04 09:42 | 54.33261 | 29.69471 | 36957 ft | 467 kts | 65° |
| 2026-05-04 09:43 | 54.35888 | 29.79675 | 36957 ft | 467 kts | 65° |
| 2026-05-04 09:43 | 54.38507 | 29.89881 | 36959 ft | 467 kts | 65° |
| 2026-05-04 09:44 | 54.41100 | 30.00114 | 36961 ft | 467 kts | 65° |
| 2026-05-04 09:46 | 54.51353 | 30.40974 | 36950 ft | 465 kts | 65° |
| 2026-05-04 09:46 | 54.53894 | 30.51216 | 36955 ft | 465 kts | 65° |
| 2026-05-04 09:47 | 54.56426 | 30.61473 | 36950 ft | 465 kts | 65° |
| 2026-05-04 09:49 | 54.66473 | 31.02653 | 36948 ft | 466 kts | 67° |
| 2026-05-04 09:51 | 54.72841 | 31.38426 | 36948 ft | 467 kts | 71° |
| 2026-05-04 09:51 | 54.74744 | 31.49112 | 36952 ft | 467 kts | 71° |
| 2026-05-04 09:52 | 54.76651 | 31.59892 | 36952 ft | 467 kts | 71° |
| 2026-05-04 09:52 | 54.78548 | 31.70675 | 36948 ft | 467 kts | 71° |
| 2026-05-04 09:53 | 54.80434 | 31.81469 | 36946 ft | 467 kts | 71° |